Time;durP1;ratioP1;P1;durP2;ratioP2;P2;SDS_P1;SDS_P2;PMS_P1;PMS_P2;Temp;Humidity;BMP_temperature;BMP_pressure;BME280_temperature;BME280_humidity;BME280_pressure;Samples;Min_cycle;Max_cycle;Signal;HPM_P1;HPM_P2
2022/05/22 00:01:40;;;;;;;22.90;6.45;;;8.90;99.90;;;;;;5033940;28;20045;-80
2022/05/22 00:04:07;;;;;;;20.95;7.05;;;8.90;99.90;;;;;;5035270;28;20529;-80
2022/05/22 00:06:32;;;;;;;16.15;6.13;;;8.80;99.90;;;;;;5034730;28;20188;-80
2022/05/22 00:08:58;;;;;;;20.17;6.97;;;8.80;99.90;;;;;;5034941;28;20142;-80
2022/05/22 00:11:24;;;;;;;23.13;6.80;;;8.80;99.90;;;;;;5034056;28;20053;-80
2022/05/22 00:13:50;;;;;;;19.42;6.68;;;8.70;99.90;;;;;;5033794;28;20048;-79
2022/05/22 00:19:00;;;;;;;22.00;7.13;;;8.70;99.90;;;;;;5034618;28;20088;-80
2022/05/22 00:21:26;;;;;;;21.02;7.25;;;8.60;99.90;;;;;;5034871;28;20383;-80
2022/05/22 00:23:52;;;;;;;26.58;6.55;;;8.60;99.90;;;;;;5033704;28;20123;-80
2022/05/22 00:26:17;;;;;;;18.55;7.03;;;8.50;99.90;;;;;;5034762;28;20046;-80
2022/05/22 00:28:43;;;;;;;16.77;6.63;;;8.50;99.90;;;;;;5034750;28;20162;-80
2022/05/22 00:31:09;;;;;;;19.13;6.85;;;8.50;99.90;;;;;;5034649;28;20503;-80
2022/05/22 00:33:36;;;;;;;22.48;7.13;;;8.60;99.90;;;;;;5034457;28;20410;-80
2022/05/22 00:36:02;;;;;;;27.77;7.97;;;8.40;99.90;;;;;;5034643;28;20110;-79
2022/05/22 00:38:28;;;;;;;21.17;7.20;;;8.40;99.90;;;;;;5034573;28;20045;-79
2022/05/22 00:40:54;;;;;;;15.88;7.07;;;8.40;99.90;;;;;;5033558;28;20052;-79
2022/05/22 00:43:35;;;;;;;21.48;6.95;;;8.40;99.90;;;;;;5033208;28;20120;-79
2022/05/22 00:46:04;;;;;;;21.80;6.68;;;8.50;99.90;;;;;;5033588;28;20048;-80
2022/05/22 00:48:30;;;;;;;14.88;6.13;;;8.40;99.90;;;;;;5034059;28;20521;-80
2022/05/22 00:51:02;;;;;;;16.00;5.78;;;8.40;99.90;;;;;;5034434;28;20099;-80
2022/05/22 00:53:32;;;;;;;15.70;5.45;;;8.30;99.90;;;;;;5034176;28;20072;-79
2022/05/22 00:56:01;;;;;;;11.70;5.18;;;8.30;99.90;;;;;;5034149;28;20146;-79
2022/05/22 00:58:29;;;;;;;11.93;5.13;;;8.30;99.90;;;;;;5033007;28;20049;-80
2022/05/22 01:00:55;;;;;;;11.02;5.70;;;8.30;99.90;;;;;;5033864;28;20096;-80
2022/05/22 01:03:27;;;;;;;13.07;5.43;;;8.50;99.90;;;;;;5033986;28;20049;-79
2022/05/22 01:05:53;;;;;;;;;;;8.20;99.90;;;;;;5033300;28;20128;-80
2022/05/22 01:08:19;;;;;;;10.07;4.72;;;8.20;99.90;;;;;;5033929;28;19921;-79
2022/05/22 01:10:48;;;;;;;13.13;5.45;;;8.10;99.90;;;;;;5033646;28;20474;-79
2022/05/22 01:13:18;;;;;;;13.32;5.30;;;8.10;99.90;;;;;;5033741;28;20049;-80
2022/05/22 01:15:44;;;;;;;7.93;5.27;;;8.10;99.90;;;;;;5033512;28;20057;-81
2022/05/22 01:18:10;;;;;;;9.05;4.97;;;8.10;99.90;;;;;;5033779;28;20359;-80
2022/05/22 01:20:37;;;;;;;6.63;3.75;;;8.00;99.90;;;;;;5033820;28;20555;-79
2022/05/22 01:23:02;;;;;;;9.95;4.70;;;8.00;99.90;;;;;;5032664;28;20137;-79
2022/05/22 01:25:28;;;;;;;11.50;4.55;;;8.00;99.90;;;;;;5033420;28;20136;-81
2022/05/22 01:27:54;;;;;;;8.00;4.30;;;7.90;99.90;;;;;;5033482;28;20053;-79
2022/05/22 01:30:27;;;;;;;9.02;4.82;;;7.90;99.90;;;;;;5033319;28;20490;-79
2022/05/22 01:32:53;;;;;;;12.00;4.97;;;7.90;99.90;;;;;;5032293;28;20107;-82
2022/05/22 01:35:22;;;;;;;13.20;5.78;;;7.90;99.90;;;;;;5033463;28;20045;-80
2022/05/22 01:37:48;;;;;;;9.82;5.47;;;7.80;99.90;;;;;;5032264;28;20045;-79
2022/05/22 01:40:15;;;;;;;11.85;5.47;;;7.80;99.90;;;;;;5032284;28;20053;-79
2022/05/22 01:42:41;;;;;;;13.68;6.40;;;7.80;99.90;;;;;;5032037;28;20045;-82
2022/05/22 01:45:08;;;;;;;13.38;5.95;;;7.80;99.90;;;;;;5033035;28;20045;-80
2022/05/22 01:47:36;;;;;;;16.65;6.63;;;7.80;99.90;;;;;;5033356;28;20452;-79
2022/05/22 01:50:02;;;;;;;16.23;6.65;;;8.00;99.90;;;;;;5033325;28;20049;-79
2022/05/22 01:52:28;;;;;;;16.05;6.43;;;7.80;99.90;;;;;;5031798;28;20116;-80
2022/05/22 01:54:54;;;;;;;15.13;5.60;;;7.70;99.90;;;;;;5032938;28;20124;-79
2022/05/22 01:57:19;;;;;;;20.55;6.35;;;7.70;99.90;;;;;;5032040;28;20052;-79
2022/05/22 01:59:45;;;;;;;17.77;6.20;;;7.70;99.90;;;;;;5032838;28;20049;-79
2022/05/22 02:02:11;;;;;;;10.77;5.50;;;7.70;99.90;;;;;;5032632;28;20049;-80
2022/05/22 02:04:36;;;;;;;13.27;5.72;;;7.90;99.90;;;;;;5015560;28;20514;-80
2022/05/22 02:09:47;;;;;;;13.80;6.85;;;7.60;99.90;;;;;;5032741;28;20049;-79
2022/05/22 02:12:12;;;;;;;16.10;7.07;;;7.60;99.90;;;;;;5032578;28;20380;-79
2022/05/22 02:14:38;;;;;;;14.93;5.90;;;8.00;99.90;;;;;;5032426;28;20057;-79
2022/05/22 02:17:04;;;;;;;11.90;5.68;;;7.60;99.90;;;;;;5032105;28;20050;-83
2022/05/22 02:19:30;;;;;;;14.30;6.10;;;7.50;99.90;;;;;;5031734;28;20038;-79
2022/05/22 02:21:56;;;;;;;13.63;6.75;;;7.50;99.90;;;;;;5032665;28;20045;-79
2022/05/22 02:24:21;;;;;;;17.63;6.50;;;7.50;99.90;;;;;;5032618;28;20041;-79
2022/05/22 02:26:47;;;;;;;17.55;7.05;;;7.50;99.90;;;;;;5032518;28;20099;-79
2022/05/22 02:29:13;;;;;;;13.27;6.47;;;7.50;99.90;;;;;;5032241;28;20045;-87
2022/05/22 02:31:38;;;;;;;11.30;6.40;;;7.40;99.90;;;;;;5032605;28;20064;-79
2022/05/22 02:34:04;;;;;;;17.55;6.55;;;7.40;99.90;;;;;;5031789;28;20053;-79
2022/05/22 02:36:30;;;;;;;15.48;6.53;;;7.40;99.90;;;;;;5032552;28;20053;-79
2022/05/22 02:38:55;;;;;;;19.42;7.10;;;7.50;99.90;;;;;;5032403;28;20088;-79
2022/05/22 02:41:21;;;;;;;16.83;7.55;;;7.40;99.90;;;;;;5032639;28;20042;-79
2022/05/22 02:43:47;;;;;;;19.38;7.10;;;7.30;99.90;;;;;;5032252;28;20445;-79
2022/05/22 02:46:16;;;;;;;20.40;7.80;;;7.30;99.90;;;;;;5032145;28;20388;-79
2022/05/22 02:48:42;;;;;;;15.27;7.90;;;7.30;99.90;;;;;;5032299;28;20464;-79
2022/05/22 02:51:20;;;;;;;18.83;8.55;;;7.30;99.90;;;;;;5032523;28;20041;-89
2022/05/22 02:53:45;;;;;;;12.30;7.65;;;7.30;99.90;;;;;;5032354;28;20068;-80
2022/05/22 02:56:19;;;;;;;20.55;7.88;;;7.30;99.90;;;;;;5032237;28;20046;-79
2022/05/22 02:58:45;;;;;;;19.23;8.50;;;7.30;99.90;;;;;;5032049;28;20137;-79
2022/05/22 03:01:10;;;;;;;19.70;8.55;;;7.30;99.90;;;;;;5032323;28;20628;-79
2022/05/22 03:03:36;;;;;;;23.10;9.07;;;7.30;99.90;;;;;;5032383;28;20056;-82
2022/05/22 03:08:46;;;;;;;18.02;8.98;;;7.30;99.90;;;;;;5032136;28;20061;-79
2022/05/22 03:11:12;;;;;;;26.85;9.60;;;7.20;99.90;;;;;;5032099;28;20049;-79
2022/05/22 03:13:38;;;;;;;21.38;9.40;;;7.20;99.90;;;;;;5032042;28;20187;-79
2022/05/22 03:16:04;;;;;;;20.25;9.13;;;7.20;99.90;;;;;;5032292;28;20152;-79
2022/05/22 03:18:30;;;;;;;27.27;9.40;;;7.20;99.90;;;;;;5031860;28;20104;-79
2022/05/22 03:20:56;;;;;;;21.20;10.15;;;7.20;99.90;;;;;;5031868;28;20051;-79
2022/05/22 03:23:22;;;;;;;26.35;9.50;;;7.20;99.90;;;;;;5032526;28;20037;-80
2022/05/22 03:25:48;;;;;;;23.63;9.70;;;7.20;99.90;;;;;;5032054;28;20052;-80
2022/05/22 03:28:15;;;;;;;19.08;9.30;;;7.20;99.90;;;;;;5034855;28;20041;-79
2022/05/22 03:30:40;;;;;;;20.27;9.73;;;7.20;99.90;;;;;;5035846;28;20100;-80
2022/05/22 03:33:06;;;;;;;22.25;9.25;;;7.20;99.90;;;;;;5035736;28;20049;-80
2022/05/22 03:35:32;;;;;;;21.38;10.00;;;7.20;99.90;;;;;;5035973;28;20491;-79
2022/05/22 03:37:58;;;;;;;24.75;9.63;;;7.20;99.90;;;;;;5035843;28;20081;-79
2022/05/22 03:40:24;;;;;;;24.40;8.98;;;7.20;99.90;;;;;;5034384;28;20468;-79
2022/05/22 03:42:50;;;;;;;20.98;9.95;;;7.20;99.90;;;;;;5035315;28;20065;-79
2022/05/22 03:45:15;;;;;;;23.88;9.80;;;7.40;99.90;;;;;;5018174;28;20087;-79
2022/05/22 03:47:41;;;;;;;21.98;9.95;;;7.40;99.90;;;;;;5035534;28;20042;-80
2022/05/22 03:50:09;;;;;;;22.73;10.50;;;7.30;99.90;;;;;;5018251;28;20061;-80
2022/05/22 03:52:38;;;;;;;26.45;10.80;;;7.30;99.90;;;;;;5035396;28;20061;-80
2022/05/22 03:55:07;;;;;;;20.55;10.32;;;7.40;99.90;;;;;;5035351;28;20088;-79
2022/05/22 03:57:33;;;;;;;22.35;9.85;;;7.40;99.90;;;;;;5034940;28;20403;-79
2022/05/22 03:59:58;;;;;;;21.13;10.77;;;7.40;99.90;;;;;;5035300;28;20065;-79
2022/05/22 04:02:24;;;;;;;21.85;10.15;;;7.40;99.90;;;;;;5035086;28;20042;-79
2022/05/22 04:04:50;;;;;;;23.45;10.52;;;7.40;99.90;;;;;;5034228;28;20056;-79
2022/05/22 04:07:16;;;;;;;23.08;10.60;;;7.40;99.90;;;;;;5034063;28;20483;-80
2022/05/22 04:09:42;;;;;;;23.13;11.27;;;7.50;99.90;;;;;;5035023;28;20469;-79
2022/05/22 04:12:11;;;;;;;21.45;10.65;;;7.50;99.90;;;;;;5035152;28;20091;-91
2022/05/22 04:14:37;;;;;;;23.95;10.77;;;7.50;99.90;;;;;;5035108;28;20061;-79
2022/05/22 04:17:04;;;;;;;19.25;10.52;;;7.60;99.90;;;;;;5034921;28;20045;-79
2022/05/22 04:19:31;;;;;;;28.60;11.23;;;7.60;99.90;;;;;;5034723;28;20505;-79
2022/05/22 04:21:57;;;;;;;19.80;10.82;;;7.70;99.90;;;;;;5034768;28;20041;-79
2022/05/22 04:27:07;;;;;;;23.77;11.10;;;7.80;99.90;;;;;;5034707;28;20088;-79
2022/05/22 04:29:35;;;;;;;19.23;10.23;;;7.90;99.90;;;;;;5034820;28;20057;-79
2022/05/22 04:32:01;;;;;;;27.80;11.10;;;7.90;99.90;;;;;;5034736;28;20037;-79
2022/05/22 04:34:27;;;;;;;23.45;9.98;;;8.00;99.90;;;;;;5034494;28;20049;-80
2022/05/22 04:36:53;;;;;;;23.55;10.57;;;8.10;99.90;;;;;;5034537;28;20056;-79
2022/05/22 04:39:19;;;;;;;25.27;11.23;;;8.20;99.90;;;;;;5033886;28;20452;-79
2022/05/22 04:41:44;;;;;;;22.77;10.75;;;8.20;99.90;;;;;;5034388;28;20483;-79
2022/05/22 04:44:10;;;;;;;18.38;9.38;;;8.30;99.90;;;;;;5033194;28;20183;-82
2022/05/22 04:46:35;;;;;;;22.70;10.93;;;8.30;99.90;;;;;;5033370;28;20061;-79
2022/05/22 04:49:01;;;;;;;21.45;9.77;;;8.40;99.90;;;;;;5033412;28;20108;-79
2022/05/22 04:51:27;;;;;;;26.70;12.00;;;8.50;99.90;;;;;;5034156;28;20052;-79
2022/05/22 04:53:53;;;;;;;21.13;11.50;;;8.50;99.90;;;;;;5034000;28;20049;-79
2022/05/22 04:56:19;;;;;;;28.63;11.15;;;8.60;99.90;;;;;;5034297;28;20057;-79
2022/05/22 04:58:46;;;;;;;19.52;10.75;;;8.70;99.90;;;;;;5034211;28;20505;-79
2022/05/22 05:01:12;;;;;;;21.83;11.48;;;8.90;99.90;;;;;;5034185;28;20055;-79
2022/05/22 05:03:38;;;;;;;26.88;10.88;;;9.10;99.90;;;;;;5034209;28;20077;-80
2022/05/22 05:06:04;;;;;;;23.38;11.45;;;9.00;99.90;;;;;;5033985;28;20506;-80
2022/05/22 05:08:30;;;;;;;20.52;9.98;;;9.20;99.90;;;;;;5034002;28;20037;-80
2022/05/22 05:10:57;;;;;;;20.23;10.07;;;9.30;99.90;;;;;;5032614;28;20486;-79
2022/05/22 05:13:24;;;;;;;21.50;10.13;;;9.40;99.90;;;;;;5032687;28;20045;-80
2022/05/22 05:16:08;;;;;;;22.13;9.23;;;9.50;99.90;;;;;;5033460;28;20053;-79
2022/05/22 05:18:35;;;;;;;23.13;9.68;;;9.60;99.90;;;;;;5033840;28;20391;-79
2022/05/22 05:21:06;;;;;;;22.30;9.30;;;9.70;99.90;;;;;;5033695;28;20099;-85
2022/05/22 05:23:32;;;;;;;;;;;9.80;99.90;;;;;;5033823;28;20046;-79
2022/05/22 05:25:58;;;;;;;22.67;9.68;;;9.90;99.90;;;;;;5033494;28;19931;-79
2022/05/22 05:28:24;;;;;;;28.38;9.25;;;10.00;99.90;;;;;;5033482;28;20060;-80
2022/05/22 05:30:50;;;;;;;21.35;9.35;;;10.10;99.90;;;;;;5033567;28;20475;-79
2022/05/22 05:33:16;;;;;;;16.42;7.47;;;10.20;99.90;;;;;;5033488;28;20049;-79
2022/05/22 05:35:42;;;;;;;20.38;7.50;;;10.30;99.90;;;;;;5032625;28;20042;-90
2022/05/22 05:38:08;;;;;;;18.10;7.43;;;10.40;99.90;;;;;;5033206;28;20499;-80
2022/05/22 05:40:34;;;;;;;20.85;7.20;;;10.40;99.90;;;;;;5032173;28;20080;-79
2022/05/22 05:43:00;;;;;;;19.02;6.93;;;10.50;99.90;;;;;;5033572;28;20045;-80
2022/05/22 05:45:27;;;;;;;17.80;6.72;;;10.60;99.90;;;;;;5033613;28;20088;-80
2022/05/22 05:47:53;;;;;;;12.40;5.85;;;10.70;99.90;;;;;;5034336;28;20118;-79
2022/05/22 05:50:22;;;;;;;12.57;6.13;;;10.80;99.90;;;;;;5035162;28;20198;-79
2022/05/22 05:52:59;;;;;;;17.85;6.97;;;10.90;99.90;;;;;;5039444;28;20069;-80
2022/05/22 05:55:25;;;;;;;14.23;6.30;;;11.00;99.90;;;;;;5037661;28;20057;-80
2022/05/22 05:57:51;;;;;;;15.70;6.10;;;11.00;99.90;;;;;;5038764;28;20046;-79
2022/05/22 06:00:21;;;;;;;14.73;5.55;;;11.20;99.90;;;;;;5040632;28;20072;-79
2022/05/22 06:02:46;;;;;;;14.73;6.10;;;11.20;99.90;;;;;;5049531;28;20076;-79
2022/05/22 06:05:13;;;;;;;13.75;6.18;;;11.30;99.90;;;;;;5039180;28;20495;-80
2022/05/22 06:07:39;;;;;;;11.65;5.57;;;11.40;99.90;;;;;;5033709;28;20064;-80
2022/05/22 06:10:07;;;;;;;19.70;6.40;;;11.50;99.90;;;;;;5033775;28;20045;-79
2022/05/22 06:12:33;;;;;;;16.10;6.07;;;11.50;99.90;;;;;;5033812;28;20199;-80
2022/05/22 06:14:59;;;;;;;17.02;5.22;;;11.60;99.90;;;;;;5032185;28;20399;-80
2022/05/22 06:17:37;;;;;;;19.50;6.25;;;11.60;99.90;;;;;;5033036;28;20049;-79
2022/05/22 06:20:06;;;;;;;15.10;6.20;;;11.80;99.90;;;;;;5032877;28;20050;-80
2022/05/22 06:22:34;;;;;;;17.83;5.55;;;11.90;99.90;;;;;;5032877;28;20491;-80
2022/05/22 06:25:01;;;;;;;18.08;6.65;;;12.00;99.90;;;;;;5032921;28;20125;-80
2022/05/22 06:27:27;;;;;;;13.73;6.15;;;12.10;99.90;;;;;;5032800;28;20053;-80
2022/05/22 06:29:53;;;;;;;13.60;5.80;;;12.10;99.90;;;;;;5031639;28;20060;-80
2022/05/22 06:32:20;;;;;;;18.63;6.25;;;12.30;99.90;;;;;;5032651;28;20479;-80
2022/05/22 06:34:47;;;;;;;12.98;5.90;;;12.60;99.90;;;;;;5031339;28;20037;-80
2022/05/22 06:37:18;;;;;;;13.00;5.10;;;13.00;99.90;;;;;;5032366;28;20068;-80
2022/05/22 06:39:50;;;;;;;18.25;5.88;;;13.90;99.90;;;;;;5032783;28;20071;-80
2022/05/22 06:42:44;;;;;;;10.88;5.18;;;14.90;99.90;;;;;;5032890;28;20386;-80
2022/05/22 06:45:14;;;;;;;13.75;4.88;;;16.00;99.90;;;;;;5032815;28;20095;-80
2022/05/22 06:47:41;;;;;;;14.40;4.43;;;16.80;99.90;;;;;;5030915;28;20514;-80
2022/05/22 06:50:12;;;;;;;10.60;4.05;;;17.40;99.90;;;;;;5031728;28;20083;-81
2022/05/22 06:52:38;;;;;;;;;;;17.90;99.90;;;;;;5033004;28;20046;-80
2022/05/22 06:55:05;;;;;;;9.50;3.88;;;18.70;99.90;;;;;;5032504;28;19983;-80
2022/05/22 06:57:31;;;;;;;12.95;3.42;;;19.20;99.90;;;;;;5032179;28;20115;-80
2022/05/22 06:59:58;;;;;;;11.77;3.05;;;19.60;99.90;;;;;;5031440;28;20053;-80
2022/05/22 07:02:29;;;;;;;10.05;3.35;;;20.00;99.90;;;;;;5033747;28;20049;-80
2022/05/22 07:04:59;;;;;;;;;;;20.30;99.90;;;;;;5035157;28;20045;-79
2022/05/22 07:07:25;;;;;;;12.50;3.20;;;20.50;99.90;;;;;;5035945;28;19979;-80
2022/05/22 07:09:51;;;;;;;11.23;3.08;;;20.60;99.90;;;;;;5034383;28;20392;-81
2022/05/22 07:12:18;;;;;;;11.32;2.80;;;20.90;99.90;;;;;;5034885;28;20045;-81
2022/05/22 07:14:48;;;;;;;9.40;2.90;;;21.00;99.90;;;;;;5035194;28;20461;-82
2022/05/22 07:17:15;;;;;;;11.32;2.50;;;21.00;99.90;;;;;;5035653;28;20053;-80
2022/05/22 07:19:42;;;;;;;10.73;3.10;;;21.20;99.90;;;;;;5034960;28;20119;-80
2022/05/22 07:22:08;;;;;;;12.85;3.17;;;21.40;99.90;;;;;;5035565;28;20041;-82
2022/05/22 07:24:34;;;;;;;11.65;2.78;;;21.70;99.90;;;;;;5035809;28;20037;-81
2022/05/22 07:27:00;;;;;;;6.20;1.95;;;22.00;99.90;;;;;;5035598;28;20053;-81
2022/05/22 07:29:27;;;;;;;7.93;2.10;;;22.30;99.90;;;;;;5035963;28;20045;-81
2022/05/22 07:31:54;;;;;;;8.80;2.70;;;22.70;99.90;;;;;;5034316;28;20527;-83
2022/05/22 07:34:21;;;;;;;8.65;2.38;;;22.90;95.90;;;;;;5035091;28;20038;-82
2022/05/22 07:36:49;;;;;;;9.55;2.60;;;23.10;94.00;;;;;;5034343;28;20176;-82
2022/05/22 07:39:14;;;;;;;9.60;2.42;;;23.30;92.00;;;;;;5035228;28;20053;-82
2022/05/22 07:41:40;;;;;;;8.82;2.13;;;23.50;90.50;;;;;;5035129;28;20047;-82
2022/05/22 07:44:06;;;;;;;6.50;2.00;;;23.60;88.20;;;;;;5035750;28;20047;-83
2022/05/22 07:46:31;;;;;;;10.45;2.70;;;23.80;81.50;;;;;;5034891;28;20049;-82
2022/05/22 07:48:57;;;;;;;7.80;2.28;;;23.90;79.70;;;;;;5035353;28;20053;-82
2022/05/22 07:51:23;;;;;;;11.30;2.55;;;23.90;75.10;;;;;;5017879;28;20053;-82
2022/05/22 07:53:51;;;;;;;6.75;2.30;;;23.70;72.10;;;;;;5035453;28;20041;-81
2022/05/22 07:56:21;;;;;;;10.30;2.60;;;23.60;74.20;;;;;;5035210;28;20041;-82
2022/05/22 07:58:47;;;;;;;7.18;2.60;;;23.70;75.80;;;;;;5035042;28;20080;-82
2022/05/22 08:01:13;;;;;;;9.05;2.30;;;24.00;76.00;;;;;;5034925;28;20045;-81
2022/05/22 08:03:39;;;;;;;11.38;2.03;;;24.60;70.10;;;;;;5035188;28;20045;-81
2022/05/22 08:06:04;;;;;;;9.05;2.40;;;25.00;67.60;;;;;;5034375;28;20048;-81
2022/05/22 08:08:31;;;;;;;7.65;2.10;;;25.40;63.80;;;;;;5035093;28;20483;-82
2022/05/22 08:10:57;;;;;;;7.63;1.98;;;25.60;61.80;;;;;;5034986;28;20049;-81
2022/05/22 08:13:23;;;;;;;6.20;2.35;;;25.70;60.20;;;;;;5016269;28;20111;-81
2022/05/22 08:15:49;;;;;;;5.45;2.00;;;25.80;59.00;;;;;;5033458;28;20490;-81
2022/05/22 08:18:15;;;;;;;9.60;2.30;;;25.60;58.40;;;;;;5034656;28;20056;-82
2022/05/22 08:20:43;;;;;;;9.90;2.35;;;25.70;58.10;;;;;;5035072;28;20085;-81
2022/05/22 08:23:15;;;;;;;7.07;2.40;;;26.00;57.70;;;;;;5034790;28;20117;-81
2022/05/22 08:25:41;;;;;;;8.15;1.70;;;26.50;55.50;;;;;;5033815;28;20046;-83
2022/05/22 08:28:07;;;;;;;10.40;2.53;;;26.50;53.40;;;;;;5033470;28;20406;-84
2022/05/22 08:30:33;;;;;;;10.00;2.60;;;26.50;53.10;;;;;;5034350;28;20049;-82
2022/05/22 08:32:59;;;;;;;8.73;2.10;;;26.50;52.80;;;;;;5033462;28;20414;-82
2022/05/22 08:35:28;;;;;;;7.18;1.80;;;26.50;52.60;;;;;;5034877;28;20430;-82
2022/05/22 08:37:54;;;;;;;7.13;1.70;;;26.60;53.20;;;;;;5035815;28;20064;-82
2022/05/22 08:40:22;;;;;;;6.53;1.60;;;26.80;51.40;;;;;;5034265;28;20038;-81
2022/05/22 08:43:16;;;;;;;8.88;2.10;;;26.90;50.60;;;;;;5034199;28;20111;-82
2022/05/22 08:45:56;;;;;;;11.38;2.20;;;27.00;49.30;;;;;;5033925;28;20111;-82
2022/05/22 08:48:33;;;;;;;7.75;1.98;;;26.90;51.50;;;;;;5034216;28;20375;-84
2022/05/22 08:51:00;;;;;;;5.80;1.90;;;27.00;50.20;;;;;;5034188;28;20049;-82
2022/05/22 08:53:35;;;;;;;7.45;1.98;;;26.80;51.60;;;;;;5032160;28;20068;-83
2022/05/22 08:59:39;;;;;;;6.32;1.95;;;27.30;51.90;;;;;;5032719;28;20067;-83
2022/05/22 09:02:23;;;;;;;7.65;2.25;;;27.50;47.40;;;;;;5031605;28;20049;-82
2022/05/22 09:05:06;;;;;;;7.88;2.10;;;27.40;49.10;;;;;;5015227;28;20049;-83
2022/05/22 09:07:51;;;;;;;9.13;2.20;;;27.60;47.60;;;;;;5014828;28;20132;-82
2022/05/22 09:10:39;;;;;;;6.65;1.88;;;27.90;49.70;;;;;;5030980;28;20623;-83
2022/05/22 09:13:26;;;;;;;6.80;2.13;;;28.00;47.90;;;;;;5015140;28;20053;-82
2022/05/22 09:16:10;;;;;;;8.38;2.17;;;27.80;48.90;;;;;;5029751;28;20049;-82
2022/05/22 09:18:46;;;;;;;7.95;2.40;;;28.00;49.50;;;;;;4998543;28;20058;-83
2022/05/22 09:21:37;;;;;;;12.90;2.42;;;28.20;48.60;;;;;;5015060;28;20038;-83
2022/05/22 09:24:23;;;;;;;6.25;1.98;;;28.40;45.80;;;;;;5031631;28;20049;-83
2022/05/22 09:27:08;;;;;;;9.95;2.03;;;28.30;47.40;;;;;;5031317;28;20054;-82
2022/05/22 09:30:00;;;;;;;7.63;1.83;;;28.10;47.10;;;;;;5014695;28;20088;-83
2022/05/22 09:32:38;;;;;;;13.98;2.13;;;27.90;47.50;;;;;;5015594;28;20603;-82
2022/05/22 09:35:31;;;;;;;13.75;2.00;;;28.10;49.20;;;;;;5031202;28;20045;-83
2022/05/22 09:38:05;;;;;;;8.02;2.17;;;28.50;48.80;;;;;;5031141;28;20049;-82
2022/05/22 09:41:06;;;;;;;9.13;1.70;;;28.60;47.00;;;;;;5033573;28;20091;-82
2022/05/22 09:44:09;;;;;;;7.40;1.88;;;27.60;48.40;;;;;;5033805;28;20045;-82
2022/05/22 09:47:05;;;;;;;6.60;1.63;;;27.20;48.30;;;;;;5032464;28;20487;-82
2022/05/22 09:49:40;;;;;;;9.68;1.67;;;26.40;48.70;;;;;;5032656;28;20042;-82
2022/05/22 09:52:29;;;;;;;9.15;2.10;;;25.40;50.20;;;;;;5032284;28;20087;-84
2022/05/22 09:55:53;;;;;;;6.23;1.80;;;24.70;50.90;;;;;;5032640;28;20107;-81
2022/05/22 09:58:39;;;;;;;12.70;2.35;;;24.50;52.70;;;;;;5032520;28;20057;-81
2022/05/22 10:01:07;;;;;;;8.35;2.05;;;24.30;53.80;;;;;;5015578;28;20159;-82
2022/05/22 10:03:44;;;;;;;5.72;1.52;;;24.40;53.30;;;;;;5015331;28;20576;-82
2022/05/22 10:06:12;;;;;;;10.52;2.08;;;24.60;52.90;;;;;;5032096;28;20052;-82
2022/05/22 10:08:47;;;;;;;9.18;1.75;;;24.70;52.30;;;;;;5014722;28;20061;-82
2022/05/22 10:11:33;;;;;;;7.85;2.00;;;24.70;52.60;;;;;;5014919;28;20049;-83
2022/05/22 10:14:10;;;;;;;7.70;1.70;;;24.80;52.70;;;;;;5014605;28;20037;-82
2022/05/22 10:16:56;;;;;;;8.55;1.70;;;24.60;52.30;;;;;;5030093;28;20136;-80
2022/05/22 10:20:05;;;;;;;6.18;1.88;;;24.80;53.20;;;;;;5029309;28;20542;-81
2022/05/22 10:23:01;;;;;;;8.93;1.52;;;25.20;52.50;;;;;;4970592;28;20090;-82
2022/05/22 10:25:36;;;;;;;6.68;1.92;;;25.30;51.20;;;;;;4979000;28;20107;-81
2022/05/22 10:28:10;;;;;;;4.75;1.25;;;25.00;52.70;;;;;;4960261;28;20129;-84
2022/05/22 10:30:41;;;;;;;7.65;1.80;;;25.20;53.30;;;;;;4975344;28;20464;-82
2022/05/22 10:33:16;;;;;;;6.72;1.67;;;25.70;51.50;;;;;;4975934;28;20511;-83
2022/05/22 10:35:55;;;;;;;7.03;1.70;;;25.50;53.00;;;;;;4992025;28;20053;-82
2022/05/22 10:38:29;;;;;;;8.60;2.05;;;25.00;54.50;;;;;;4991798;28;20125;-82
2022/05/22 10:43:44;;;;;;;9.63;1.70;;;23.70;57.50;;;;;;4989485;28;20069;-82
2022/05/22 10:46:10;;;;;;;7.53;1.50;;;23.00;59.70;;;;;;4989827;28;20412;-83
2022/05/22 10:48:47;;;;;;;5.63;1.45;;;22.60;62.60;;;;;;4989170;28;20061;-82
2022/05/22 10:51:25;;;;;;;6.05;1.45;;;22.50;63.90;;;;;;4973727;28;20058;-81
2022/05/22 10:54:00;;;;;;;5.80;1.60;;;22.80;64.20;;;;;;4973087;28;20411;-83
2022/05/22 10:56:31;;;;;;;5.20;1.58;;;23.00;62.30;;;;;;4989187;28;20089;-82
2022/05/22 10:59:17;;;;;;;8.35;1.75;;;23.00;61.70;;;;;;5007679;28;20061;-83
2022/05/22 11:01:43;;;;;;;5.90;1.67;;;23.30;60.10;;;;;;5031615;28;20045;-83
2022/05/22 11:04:13;;;;;;;6.22;1.73;;;23.60;59.90;;;;;;5031080;28;20506;-83
2022/05/22 11:07:00;;;;;;;7.90;1.70;;;23.60;59.10;;;;;;5032792;28;20495;-82
2022/05/22 11:09:31;;;;;;;6.82;1.65;;;23.30;59.70;;;;;;5033160;28;20072;-82
2022/05/22 11:12:12;;;;;;;7.35;1.83;;;22.90;64.70;;;;;;5033273;28;20125;-82
2022/05/22 11:14:39;;;;;;;9.27;1.60;;;22.70;60.10;;;;;;5031839;28;20049;-82
2022/05/22 11:17:22;;;;;;;9.38;1.48;;;22.20;64.20;;;;;;5031495;28;20425;-82
2022/05/22 11:19:56;;;;;;;4.28;1.30;;;22.00;66.70;;;;;;5011457;28;20191;-82
2022/05/22 11:22:35;;;;;;;7.03;1.45;;;21.90;66.60;;;;;;5029206;28;20049;-82
2022/05/22 11:25:19;;;;;;;8.65;1.75;;;21.90;71.20;;;;;;5029052;28;20156;-84
2022/05/22 11:28:07;;;;;;;6.85;1.85;;;21.80;64.20;;;;;;5028823;28;20548;-85
2022/05/22 11:30:49;;;;;;;4.97;1.38;;;21.50;62.40;;;;;;5029265;28;20386;-82
2022/05/22 11:33:34;;;;;;;5.43;1.25;;;21.30;67.50;;;;;;5028338;28;20038;-84
2022/05/22 11:36:38;;;;;;;6.50;1.65;;;21.20;67.80;;;;;;5028967;28;20043;-81
2022/05/22 11:39:28;;;;;;;5.55;1.45;;;21.10;70.10;;;;;;5003737;28;20072;-84
2022/05/22 11:42:19;;;;;;;5.80;1.60;;;21.10;72.20;;;;;;5031519;28;20057;-82
2022/05/22 11:45:02;;;;;;;4.40;1.40;;;21.10;72.00;;;;;;5037433;28;20045;-82
2022/05/22 11:47:37;;;;;;;4.10;1.15;;;21.30;70.00;;;;;;5004530;28;20532;-81
2022/05/22 11:50:14;;;;;;;6.55;1.30;;;22.30;75.40;;;;;;5023312;28;20061;-82
2022/05/22 11:53:09;;;;;;;5.30;1.63;;;24.40;61.30;;;;;;5027974;28;20216;-83
2022/05/22 11:55:58;;;;;;;6.78;1.50;;;25.70;55.10;;;;;;5042001;28;20502;-82
2022/05/22 11:58:30;;;;;;;8.20;1.60;;;26.20;53.60;;;;;;5031481;28;20053;-84
2022/05/22 12:01:42;;;;;;;8.07;1.90;;;26.40;52.30;;;;;;5041139;28;20053;-83
2022/05/22 12:04:36;;;;;;;8.25;1.60;;;27.00;49.70;;;;;;4952643;28;20063;-87
2022/05/22 12:07:01;;;;;;;7.47;1.70;;;26.80;51.60;;;;;;4945597;28;20065;-83
2022/05/22 12:10:02;;;;;;;6.80;1.88;;;26.40;52.10;;;;;;4948296;28;20055;-83
2022/05/22 12:12:49;;;;;;;8.23;1.63;;;25.80;51.80;;;;;;4946259;28;20094;-82
2022/05/22 12:15:23;;;;;;;7.45;1.48;;;25.10;53.90;;;;;;4971058;28;20138;-84
2022/05/22 12:18:02;;;;;;;7.22;1.55;;;24.50;56.20;;;;;;4951992;29;20051;-82
2022/05/22 12:21:02;;;;;;;5.88;1.75;;;24.00;55.60;;;;;;4965265;28;20090;-82
2022/05/22 12:23:33;;;;;;;5.45;1.60;;;23.60;55.70;;;;;;4970692;28;20078;-82
2022/05/22 12:26:01;;;;;;;7.68;1.80;;;23.20;57.70;;;;;;4961297;28;20349;-82
2022/05/22 12:28:30;;;;;;;4.25;1.20;;;22.80;58.00;;;;;;4937198;29;20073;-81
2022/05/22 12:30:58;;;;;;;7.35;1.88;;;22.50;59.70;;;;;;4953374;29;20051;-82
2022/05/22 12:33:27;;;;;;;7.20;1.48;;;22.20;59.50;;;;;;4953633;29;20066;-81
2022/05/22 12:35:53;;;;;;;6.68;1.50;;;22.10;61.40;;;;;;4937940;29;20066;-83
2022/05/22 12:38:19;;;;;;;7.22;1.45;;;22.00;61.30;;;;;;4953455;29;20059;-82
2022/05/22 12:41:16;;;;;;;4.97;1.33;;;21.80;61.50;;;;;;5008917;28;20112;-82
2022/05/22 12:43:43;;;;;;;6.50;1.50;;;21.70;65.50;;;;;;5013424;28;20050;-82
2022/05/22 12:46:11;;;;;;;5.05;1.42;;;21.60;65.90;;;;;;5012823;28;20046;-82
2022/05/22 12:48:40;;;;;;;9.75;1.60;;;21.50;67.30;;;;;;5014603;28;20050;-82
2022/05/22 12:51:22;;;;;;;8.32;1.33;;;21.50;69.10;;;;;;5029162;28;20068;-81
2022/05/22 12:53:53;;;;;;;8.30;1.67;;;21.50;68.80;;;;;;5002704;28;20050;-81
2022/05/22 12:56:37;;;;;;;5.30;1.25;;;21.50;70.40;;;;;;5013217;28;20045;-81
2022/05/22 12:59:16;;;;;;;7.45;1.30;;;21.60;69.10;;;;;;5012626;28;20048;-82
2022/05/22 13:01:45;;;;;;;6.13;1.20;;;21.60;65.00;;;;;;5013381;28;20058;-82
2022/05/22 13:04:24;;;;;;;4.60;1.10;;;21.80;63.40;;;;;;5013159;28;20046;-83
2022/05/22 13:07:07;;;;;;;5.95;1.40;;;21.90;66.50;;;;;;5011294;28;20567;-81
2022/05/22 13:09:43;;;;;;;8.45;1.77;;;22.20;63.60;;;;;;5013142;28;20050;-81
2022/05/22 13:12:23;;;;;;;6.47;1.30;;;22.40;65.60;;;;;;5012653;28;20092;-82
2022/05/22 13:14:50;;;;;;;5.63;1.60;;;22.60;65.30;;;;;;5013008;28;20085;-81
2022/05/22 13:17:30;;;;;;;6.20;1.20;;;22.70;63.60;;;;;;5011209;28;20045;-82
2022/05/22 13:20:02;;;;;;;6.10;1.50;;;22.80;62.00;;;;;;5012558;28;20060;-82
2022/05/22 13:22:42;;;;;;;6.00;1.30;;;22.90;66.90;;;;;;5031982;28;20050;-81
2022/05/22 13:25:30;;;;;;;7.07;1.50;;;23.20;63.60;;;;;;5031600;28;20041;-80